createdAt,value
2022-08-20T00:01:21.579Z,99.90
2022-08-20T06:00:33.312Z,99.90
2022-08-20T06:02:53.616Z,99.90
2022-08-20T06:04:56.311Z,99.90
2022-08-20T06:07:03.909Z,99.90
2022-08-20T06:09:06.013Z,99.90
2022-08-20T06:11:08.117Z,99.90
2022-08-20T06:13:13.934Z,99.90
2022-08-20T06:15:15.901Z,99.90
2022-08-20T06:17:19.043Z,99.90
2022-08-20T06:19:25.074Z,99.90
2022-08-20T06:21:28.208Z,99.90
2022-08-20T06:23:56.738Z,99.90
2022-08-20T06:25:51.840Z,99.90
2022-08-20T06:27:53.642Z,99.90
2022-08-20T06:29:55.638Z,99.90
2022-08-20T06:31:57.405Z,99.90
2022-08-20T06:33:59.141Z,99.90
2022-08-20T06:36:00.835Z,99.90
2022-08-20T06:38:03.985Z,99.90
2022-08-20T06:40:09.768Z,99.90
2022-08-20T06:42:11.950Z,99.90
2022-08-20T06:44:14.758Z,99.90
2022-08-20T06:46:16.439Z,99.90
2022-08-20T06:48:18.229Z,99.90
2022-08-20T06:50:24.158Z,99.90
2022-08-20T06:52:27.120Z,99.90
2022-08-20T06:54:48.174Z,99.90
2022-08-20T06:56:50.211Z,99.90
2022-08-20T06:58:51.912Z,99.90
2022-08-20T07:00:53.756Z,99.90
2022-08-20T07:02:55.706Z,99.90
2022-08-20T07:04:57.499Z,99.90
2022-08-20T07:06:59.483Z,99.90
2022-08-20T07:09:01.239Z,99.90
2022-08-20T07:11:03.774Z,99.90
2022-08-20T07:13:06.293Z,99.90
2022-08-20T07:15:11.473Z,99.90
2022-08-20T07:17:13.355Z,99.90
2022-08-20T07:19:15.521Z,99.90
2022-08-20T07:21:17.382Z,99.90
2022-08-20T07:23:19.082Z,99.90
2022-08-20T07:25:22.265Z,99.90
2022-08-20T07:27:24.313Z,99.90
2022-08-20T07:29:46.091Z,99.90
2022-08-20T07:32:06.686Z,99.90
2022-08-20T07:34:12.293Z,99.90
2022-08-20T07:36:14.424Z,99.90
2022-08-20T07:38:24.474Z,99.90
2022-08-20T07:40:33.765Z,99.90
2022-08-20T07:42:36.682Z,99.90
2022-08-20T07:44:39.261Z,99.90
2022-08-20T07:46:41.010Z,99.90
2022-08-20T07:48:49.589Z,99.90
2022-08-20T07:50:51.852Z,99.90
2022-08-20T07:53:00.453Z,99.90
2022-08-20T07:55:07.428Z,99.90
2022-08-20T07:57:11.623Z,99.90
2022-08-20T07:59:13.886Z,99.90
2022-08-20T08:01:17.788Z,99.90
2022-08-20T08:03:19.687Z,99.90
2022-08-20T08:05:44.230Z,99.90
2022-08-20T08:07:46.667Z,99.90
2022-08-20T08:09:49.965Z,99.90
2022-08-20T08:11:52.380Z,99.90
2022-08-20T08:13:54.565Z,99.90
2022-08-20T08:15:59.028Z,99.90
2022-08-20T08:18:14.607Z,99.90
2022-08-20T08:20:17.177Z,99.90
2022-08-20T08:22:19.986Z,99.90
2022-08-20T08:24:25.337Z,99.90
2022-08-20T08:26:29.763Z,99.90
2022-08-20T08:28:31.649Z,99.90
2022-08-20T08:30:33.588Z,99.90
2022-08-20T08:32:37.190Z,99.90
2022-08-20T08:34:39.206Z,99.90
2022-08-20T08:36:44.053Z,96.10
2022-08-20T08:38:46.396Z,94.40
2022-08-20T08:40:50.752Z,99.90
2022-08-20T08:43:04.007Z,33.80
2022-08-20T08:45:08.142Z,86.90
2022-08-20T08:47:32.004Z,11.60
2022-08-20T08:49:37.941Z,18.80
2022-08-20T08:51:45.242Z,34.30
2022-08-20T08:53:53.406Z,1.00
2022-08-20T08:55:55.249Z,1.00
2022-08-20T08:58:00.947Z,1.00
2022-08-20T09:00:23.942Z,1.00
2022-08-20T09:02:28.623Z,1.00
2022-08-20T09:04:37.673Z,1.00
2022-08-20T09:06:40.502Z,1.00
2022-08-20T09:08:48.150Z,1.00
2022-08-20T09:10:50.198Z,1.00
2022-08-20T09:12:52.379Z,1.00
2022-08-20T09:14:54.824Z,1.00
2022-08-20T09:16:56.553Z,1.00
2022-08-20T09:18:59.314Z,1.00
2022-08-20T09:21:01.122Z,1.00
2022-08-20T09:23:05.787Z,1.00
2022-08-20T09:25:08.235Z,1.00
2022-08-20T09:27:10.706Z,1.00
2022-08-20T09:29:12.500Z,1.00
2022-08-20T09:31:14.613Z,1.00
2022-08-20T09:33:20.345Z,1.00
2022-08-20T09:35:22.181Z,1.00
2022-08-20T09:37:26.744Z,1.00
2022-08-20T09:39:28.408Z,1.00
2022-08-20T09:41:30.796Z,1.00
2022-08-20T09:43:32.592Z,1.00
2022-08-20T09:45:35.628Z,1.00
2022-08-20T09:47:37.751Z,1.00
2022-08-20T09:49:41.565Z,43.80
2022-08-20T09:51:43.394Z,1.00
2022-08-20T09:53:46.144Z,1.00
2022-08-20T09:55:53.719Z,99.90
2022-08-20T09:57:55.695Z,99.90
2022-08-20T10:00:01.562Z,99.90
2022-08-20T10:02:04.093Z,99.90
2022-08-20T10:04:06.388Z,99.90
2022-08-20T10:06:08.364Z,99.90
2022-08-20T10:08:11.869Z,1.00
2022-08-20T10:10:14.975Z,1.00
2022-08-20T10:12:16.683Z,1.00
2022-08-20T10:14:18.573Z,1.00
2022-08-20T10:16:20.265Z,20.70
2022-08-20T10:18:22.107Z,14.70
2022-08-20T10:20:25.489Z,36.70
2022-08-20T10:22:27.348Z,14.00
2022-08-20T10:24:29.593Z,27.60
2022-08-20T10:26:31.480Z,27.90
2022-08-20T10:28:33.190Z,27.70
2022-08-20T10:30:35.562Z,38.80
2022-08-20T10:32:37.328Z,57.90
2022-08-20T10:34:41.366Z,29.70
2022-08-20T10:36:43.690Z,25.50
2022-08-20T10:38:45.893Z,46.90
2022-08-20T10:40:52.524Z,28.20
2022-08-20T10:42:54.492Z,44.20
2022-08-20T10:44:56.241Z,27.20
2022-08-20T10:46:58.003Z,27.70
2022-08-20T10:48:59.737Z,22.70
2022-08-20T10:51:01.478Z,29.50
2022-08-20T10:53:03.313Z,9.50
2022-08-20T10:55:05.634Z,1.00
2022-08-20T10:57:07.531Z,1.00
2022-08-20T10:59:09.352Z,22.00
2022-08-20T11:01:11.246Z,30.40
2022-08-20T11:03:13.602Z,42.40
2022-08-20T11:05:15.346Z,39.60
2022-08-20T11:07:19.589Z,43.90
2022-08-20T11:09:21.637Z,39.30
2022-08-20T11:11:23.372Z,21.90
2022-08-20T11:13:25.106Z,25.10
2022-08-20T11:15:27.042Z,1.00
2022-08-20T11:17:32.444Z,1.00
2022-08-20T11:19:43.633Z,1.00
2022-08-20T11:21:45.324Z,37.90
2022-08-20T11:23:47.033Z,30.50
2022-08-20T11:25:48.754Z,24.90
2022-08-20T11:27:51.736Z,57.80
2022-08-20T11:29:54.708Z,30.00
2022-08-20T11:31:56.500Z,28.60
2022-08-20T11:33:58.245Z,58.00
2022-08-20T11:35:59.968Z,61.00
2022-08-20T11:38:02.385Z,75.90
2022-08-20T11:40:05.219Z,98.70
2022-08-20T11:42:07.483Z,99.90
2022-08-20T11:44:20.869Z,99.90
2022-08-20T11:46:26.661Z,99.90
2022-08-20T11:48:30.218Z,99.90
2022-08-20T11:50:32.207Z,99.90
2022-08-20T11:52:34.229Z,99.90
2022-08-20T11:54:40.334Z,99.90
2022-08-20T11:56:42.475Z,99.90
2022-08-20T11:58:48.316Z,99.90
2022-08-20T12:00:50.086Z,99.90
2022-08-20T12:02:52.321Z,99.90
2022-08-20T12:04:55.320Z,99.90
2022-08-20T12:06:56.985Z,99.90
2022-08-20T12:09:02.530Z,99.90
2022-08-20T12:11:04.692Z,96.40
2022-08-20T12:13:07.505Z,99.80
2022-08-20T12:15:10.676Z,98.80
2022-08-20T12:17:23.534Z,99.90
2022-08-20T12:19:26.724Z,99.90
2022-08-20T12:21:32.025Z,99.90
2022-08-20T12:23:34.257Z,99.90
2022-08-20T12:25:36.230Z,99.90
2022-08-20T12:27:38.389Z,99.90
2022-08-20T12:29:41.280Z,99.90
2022-08-20T12:31:42.973Z,99.90
2022-08-20T12:33:44.626Z,99.90
2022-08-20T12:35:46.340Z,99.90
2022-08-20T12:37:48.454Z,99.90
2022-08-20T12:39:53.184Z,99.90
2022-08-20T12:41:55.114Z,99.90
2022-08-20T12:43:56.773Z,99.90
2022-08-20T12:45:58.457Z,99.90
2022-08-20T12:48:06.394Z,99.90
2022-08-20T12:50:11.914Z,99.90
2022-08-20T12:52:15.634Z,99.90
2022-08-20T12:54:17.354Z,99.90
2022-08-20T12:56:19.041Z,99.90
2022-08-20T12:58:20.756Z,99.90
2022-08-20T13:00:50.842Z,99.90
2022-08-20T13:02:55.053Z,99.90
2022-08-20T13:04:58.342Z,99.90
2022-08-20T13:07:04.252Z,99.90
2022-08-20T13:09:05.917Z,99.90
2022-08-20T13:11:07.614Z,99.90
2022-08-20T13:13:09.539Z,99.90
2022-08-20T13:15:11.605Z,99.90
2022-08-20T13:17:16.661Z,99.90
2022-08-20T13:19:18.360Z,99.90
2022-08-20T13:21:23.826Z,99.90
2022-08-20T13:23:25.740Z,99.90
2022-08-20T13:25:27.454Z,99.90
2022-08-20T13:27:29.228Z,99.90
2022-08-20T13:29:30.934Z,99.90
2022-08-20T13:31:32.701Z,99.90
2022-08-20T13:33:34.486Z,99.90
2022-08-20T13:35:36.177Z,99.90
2022-08-20T13:37:39.143Z,99.90
2022-08-20T13:39:42.181Z,99.90
2022-08-20T13:41:44.193Z,99.90
2022-08-20T13:43:45.905Z,99.90
2022-08-20T13:45:48.305Z,99.90
2022-08-20T13:47:54.146Z,99.90
2022-08-20T13:49:58.911Z,99.90
2022-08-20T13:52:00.736Z,99.90
2022-08-20T13:54:03.500Z,99.90
2022-08-20T13:56:05.607Z,99.90
2022-08-20T13:58:08.188Z,99.90
2022-08-20T14:00:14.557Z,99.90
2022-08-20T14:02:17.672Z,99.90
2022-08-20T14:04:19.392Z,99.90
2022-08-20T14:06:21.059Z,99.90
2022-08-20T14:08:25.585Z,99.90
2022-08-20T14:10:31.509Z,99.90
2022-08-20T14:12:33.523Z,99.90
2022-08-20T14:14:36.462Z,99.90
2022-08-20T14:16:40.522Z,99.90
2022-08-20T14:18:42.205Z,99.90
2022-08-20T14:20:45.880Z,99.90
2022-08-20T14:22:47.641Z,99.90
2022-08-20T14:24:50.264Z,99.90
2022-08-20T14:26:52.966Z,99.90
2022-08-20T14:28:54.778Z,99.90
2022-08-20T14:30:56.897Z,99.90
2022-08-20T14:33:01.029Z,99.90
2022-08-20T14:35:02.947Z,99.90
2022-08-20T14:37:22.079Z,99.90
2022-08-20T14:39:25.434Z,99.90
2022-08-20T14:41:27.133Z,99.90
2022-08-20T14:43:33.017Z,99.90
2022-08-20T14:45:35.610Z,99.90
2022-08-20T14:47:46.312Z,99.90
2022-08-20T14:49:51.479Z,99.90
2022-08-20T14:51:55.104Z,99.90
2022-08-20T14:53:57.237Z,99.90
2022-08-20T14:56:00.454Z,77.00
2022-08-20T14:58:07.655Z,26.80
2022-08-20T15:00:12.385Z,40.50
2022-08-20T15:02:16.293Z,55.30
2022-08-20T15:04:19.317Z,37.50
2022-08-20T15:06:22.279Z,1.00
2022-08-20T15:08:28.352Z,1.00
2022-08-20T15:10:32.717Z,1.00
2022-08-20T15:12:37.316Z,1.00
2022-08-20T15:14:39.359Z,1.00
2022-08-20T15:16:41.242Z,23.70
2022-08-20T15:18:43.456Z,1.00
2022-08-20T15:20:45.155Z,1.00
2022-08-20T15:22:46.870Z,1.00
2022-08-20T15:24:48.785Z,1.00
2022-08-20T15:26:50.554Z,1.00
2022-08-20T15:28:52.317Z,1.00
2022-08-20T15:30:56.102Z,99.90
2022-08-20T15:32:58.259Z,1.00
2022-08-20T15:35:00.670Z,1.00
2022-08-20T15:37:12.410Z,1.00
2022-08-20T15:39:14.891Z,99.90
2022-08-20T15:41:17.131Z,1.00
2022-08-20T15:43:19.250Z,1.00
2022-08-20T15:45:21.949Z,1.00
2022-08-20T15:47:26.086Z,99.90
2022-08-20T15:49:29.956Z,99.90
2022-08-20T15:51:45.330Z,1.00
2022-08-20T15:54:00.384Z,1.00
2022-08-20T15:56:21.625Z,1.00
2022-08-20T15:59:01.666Z,1.00
2022-08-20T16:01:25.693Z,1.00
2022-08-20T16:03:45.920Z,99.90
2022-08-20T16:05:58.666Z,1.00
2022-08-20T16:08:28.327Z,1.00
2022-08-20T16:10:52.722Z,1.00
2022-08-20T16:13:01.552Z,99.90
2022-08-20T16:15:29.389Z,99.90
2022-08-20T16:17:59.874Z,1.00
2022-08-20T16:20:17.660Z,1.00
2022-08-20T16:22:21.919Z,1.00
2022-08-20T16:24:24.774Z,1.00
2022-08-20T16:26:26.443Z,1.00
2022-08-20T16:28:55.997Z,1.00
2022-08-20T16:31:08.543Z,1.00
2022-08-20T16:33:31.792Z,1.00
2022-08-20T16:35:47.626Z,1.00
2022-08-20T16:38:07.111Z,1.00
2022-08-20T16:40:35.861Z,10.40
2022-08-20T16:42:40.983Z,40.90
2022-08-20T16:44:48.169Z,57.60
2022-08-20T16:46:58.233Z,53.00
2022-08-20T16:49:08.054Z,70.40
2022-08-20T16:51:19.822Z,84.80
2022-08-20T16:53:23.495Z,88.80
2022-08-20T16:55:26.612Z,88.70
2022-08-20T16:57:31.087Z,91.70
2022-08-20T16:59:33.330Z,99.90
2022-08-20T17:01:35.509Z,98.50
2022-08-20T17:03:39.679Z,92.00
2022-08-20T17:05:47.219Z,99.90
2022-08-20T17:07:53.531Z,55.80
2022-08-20T17:10:30.151Z,47.60
2022-08-20T17:12:32.382Z,57.50
2022-08-20T17:14:51.352Z,28.50
2022-08-20T17:16:54.994Z,40.60
2022-08-20T17:19:34.125Z,15.60
2022-08-20T17:21:38.197Z,5.10
2022-08-20T17:23:55.602Z,18.10
2022-08-20T17:26:04.987Z,1.00
2022-08-20T17:28:17.706Z,40.40
2022-08-20T17:30:28.242Z,60.30
2022-08-20T17:32:30.136Z,97.60
2022-08-20T17:34:44.034Z,99.90
2022-08-20T17:37:03.456Z,99.90
2022-08-20T17:39:16.587Z,99.90
2022-08-20T17:41:23.261Z,99.90
2022-08-20T17:43:28.300Z,99.90
2022-08-20T17:45:44.389Z,99.90
2022-08-20T17:47:46.104Z,99.90
2022-08-20T17:50:02.896Z,99.90
2022-08-20T17:52:22.714Z,99.90
2022-08-20T17:54:33.092Z,99.90
2022-08-20T17:56:38.038Z,99.90
2022-08-20T17:58:54.997Z,99.90
2022-08-20T18:00:59.706Z,99.90
2022-08-20T18:03:11.469Z,99.90
2022-08-20T18:05:19.555Z,99.90
2022-08-20T18:07:40.396Z,99.90
2022-08-20T18:10:03.911Z,99.90
2022-08-20T18:12:27.969Z,99.90
2022-08-20T18:15:21.243Z,99.90
2022-08-20T18:17:34.175Z,99.90
2022-08-20T18:19:46.190Z,99.90
2022-08-20T18:21:53.851Z,99.90
2022-08-20T18:24:07.845Z,99.90
2022-08-20T18:26:34.334Z,99.90
2022-08-20T18:28:39.281Z,99.90
2022-08-20T18:30:57.171Z,99.90
2022-08-20T18:33:07.617Z,99.90
2022-08-20T18:35:11.338Z,99.90
2022-08-20T18:37:12.977Z,99.90
2022-08-20T18:39:32.419Z,99.90
2022-08-20T18:41:54.574Z,99.90
2022-08-20T18:44:12.432Z,99.90
2022-08-20T18:46:22.570Z,99.90
2022-08-20T18:48:25.098Z,99.90
2022-08-20T18:50:38.606Z,99.90
2022-08-20T18:52:46.749Z,99.90
2022-08-20T18:54:55.654Z,99.90
2022-08-20T18:57:03.481Z,99.90
2022-08-20T18:59:19.955Z,99.90
2022-08-20T19:01:21.811Z,99.90
2022-08-20T19:03:37.604Z,99.90
2022-08-20T19:05:45.346Z,99.90
2022-08-20T19:07:51.896Z,99.90
2022-08-20T19:10:27.491Z,99.90
2022-08-20T19:12:41.539Z,99.90
2022-08-20T19:15:01.371Z,99.90
2022-08-20T19:17:11.339Z,99.90
2022-08-20T19:19:22.386Z,99.90
2022-08-20T19:21:35.937Z,99.90
2022-08-20T19:23:41.215Z,99.90
2022-08-20T19:25:53.719Z,99.90
2022-08-20T19:28:01.714Z,99.90
2022-08-20T19:30:04.345Z,99.90
2022-08-20T19:32:09.649Z,99.90
2022-08-20T19:34:19.735Z,99.90
2022-08-20T19:36:28.147Z,99.90
2022-08-20T19:38:30.214Z,99.90
2022-08-20T19:40:39.343Z,99.90
2022-08-20T19:42:43.426Z,99.90
2022-08-20T19:44:55.651Z,99.90
2022-08-20T19:46:59.519Z,99.90
2022-08-20T19:49:29.169Z,99.90
2022-08-20T19:52:07.409Z,99.90
2022-08-20T19:54:20.612Z,99.90
2022-08-20T19:56:26.830Z,99.90
2022-08-20T19:58:31.481Z,99.90
2022-08-20T20:00:43.281Z,99.90
2022-08-20T20:02:46.463Z,99.90
2022-08-20T20:04:54.898Z,99.90
2022-08-20T20:06:59.480Z,99.90
2022-08-20T20:09:26.596Z,99.90
2022-08-20T20:11:45.451Z,99.90
2022-08-20T20:13:47.432Z,99.90
2022-08-20T20:15:54.580Z,99.90
2022-08-20T20:17:59.598Z,99.90
2022-08-20T20:20:20.118Z,99.90
2022-08-20T20:22:29.118Z,99.90
2022-08-20T20:24:44.835Z,99.90
2022-08-20T20:26:48.781Z,99.90
2022-08-20T20:29:01.083Z,99.90
2022-08-20T20:31:08.407Z,99.90
2022-08-20T20:33:18.282Z,99.90
2022-08-20T20:35:29.029Z,95.00
2022-08-20T20:37:48.866Z,81.30
2022-08-20T20:40:04.045Z,93.70
2022-08-20T20:42:09.692Z,85.70
2022-08-20T20:44:19.638Z,80.60
2022-08-20T20:46:24.360Z,72.70
2022-08-20T20:48:33.770Z,67.40
2022-08-20T20:50:37.298Z,90.30
2022-08-20T20:52:55.589Z,62.70
2022-08-20T20:55:26.662Z,58.30
2022-08-20T20:57:36.454Z,50.40
2022-08-20T20:59:40.513Z,50.70
2022-08-20T21:01:48.129Z,51.50
2022-08-20T21:03:51.497Z,56.80
2022-08-20T21:05:53.964Z,54.00
2022-08-20T21:08:03.889Z,42.20
2022-08-20T21:10:05.985Z,48.60
2022-08-20T21:12:09.564Z,52.00
2022-08-20T21:14:11.619Z,25.70
2022-08-20T21:16:13.865Z,38.60
2022-08-20T21:18:15.778Z,19.40
2022-08-20T21:20:18.398Z,21.00
2022-08-20T21:22:20.626Z,19.70
2022-08-20T21:24:22.568Z,25.90
2022-08-20T21:26:26.253Z,35.90
2022-08-20T21:28:30.046Z,29.80
2022-08-20T21:30:32.117Z,28.60
2022-08-20T21:32:33.777Z,16.70
2022-08-20T21:34:35.549Z,17.40
2022-08-20T21:36:37.253Z,15.20
2022-08-20T21:38:39.160Z,15.50
2022-08-20T21:40:41.290Z,6.40
2022-08-20T21:42:44.217Z,7.00
2022-08-20T21:44:49.697Z,1.00
2022-08-20T21:46:54.310Z,1.00
2022-08-20T21:48:56.662Z,1.00
2022-08-20T21:50:58.346Z,1.00
2022-08-20T21:53:00.291Z,1.00
2022-08-20T21:55:02.047Z,1.00
2022-08-20T21:57:19.005Z,1.00
2022-08-20T21:59:23.024Z,1.00
2022-08-20T22:01:27.247Z,1.00
2022-08-20T22:03:33.763Z,1.00
2022-08-20T22:05:39.060Z,1.00
2022-08-20T22:07:42.761Z,1.00
2022-08-20T22:09:45.424Z,1.00
2022-08-20T22:11:54.161Z,1.00
2022-08-20T22:13:57.617Z,1.00
2022-08-20T22:16:05.631Z,1.00
2022-08-20T22:18:08.297Z,1.00
2022-08-20T22:20:10.673Z,2.50
2022-08-20T22:22:13.623Z,11.50
2022-08-20T22:24:16.214Z,24.00
2022-08-20T22:26:19.777Z,36.30
2022-08-20T22:28:21.983Z,52.00
2022-08-20T22:30:24.021Z,56.80
2022-08-20T22:32:33.366Z,66.00
2022-08-20T22:34:48.343Z,64.00
2022-08-20T22:36:53.577Z,61.00
2022-08-20T22:38:56.021Z,58.90
2022-08-20T22:40:58.438Z,59.10
2022-08-20T22:43:00.376Z,56.60
2022-08-20T22:45:02.449Z,77.10
2022-08-20T22:47:07.850Z,78.90
2022-08-20T22:49:13.426Z,79.80
2022-08-20T22:51:30.757Z,86.90
2022-08-20T22:53:32.923Z,87.70
2022-08-20T22:55:35.651Z,88.50
2022-08-20T22:57:38.547Z,75.30
2022-08-20T22:59:49.795Z,77.70
2022-08-20T23:01:55.710Z,74.30
2022-08-20T23:04:05.697Z,90.70
2022-08-20T23:06:09.022Z,92.40
2022-08-20T23:08:10.886Z,85.80
2022-08-20T23:10:13.733Z,69.70
2022-08-20T23:12:15.400Z,75.90
2022-08-20T23:14:20.912Z,56.00
2022-08-20T23:16:25.161Z,54.40
2022-08-20T23:18:26.861Z,51.20
2022-08-20T23:20:29.494Z,51.30
2022-08-20T23:22:31.456Z,61.20
2022-08-20T23:24:33.745Z,62.70
2022-08-20T23:26:35.767Z,64.50
2022-08-20T23:28:37.627Z,61.80
2022-08-20T23:30:39.622Z,71.70
2022-08-20T23:32:42.045Z,74.10
2022-08-20T23:34:43.874Z,74.50
2022-08-20T23:36:47.457Z,74.70
2022-08-20T23:38:49.494Z,70.50
2022-08-20T23:40:51.310Z,69.70
2022-08-20T23:42:54.342Z,68.80
2022-08-20T23:44:58.053Z,69.10
2022-08-20T23:47:02.683Z,68.50
2022-08-20T23:49:06.651Z,69.50
2022-08-20T23:51:08.902Z,61.30
2022-08-20T23:53:12.002Z,61.00
2022-08-20T23:55:19.269Z,66.70
2022-08-20T23:57:21.213Z,62.60
2022-08-20T23:59:23.021Z,52.00
